sensor_id;sensor_type;location;lat;lon;timestamp;P1;durP1;ratioP1;P2;durP2;ratioP2
71648;SDS011;59492;45.638;11.714;2022-09-12T00:02:24;3.00;;;1.60;;
71648;SDS011;59492;45.638;11.714;2022-09-12T00:04:50;6.20;;;1.90;;
71648;SDS011;59492;45.638;11.714;2022-09-12T00:07:16;2.60;;;1.50;;
71648;SDS011;59492;45.638;11.714;2022-09-12T00:09:48;1.90;;;1.70;;
71648;SDS011;59492;45.638;11.714;2022-09-12T00:12:56;1.90;;;1.50;;
71648;SDS011;59492;45.638;11.714;2022-09-12T00:18:20;1.60;;;1.50;;
71648;SDS011;59492;45.638;11.714;2022-09-12T00:20:46;2.00;;;1.80;;
71648;SDS011;59492;45.638;11.714;2022-09-12T00:23:12;2.30;;;1.30;;
71648;SDS011;59492;45.638;11.714;2022-09-12T00:25:43;1.90;;;1.60;;
71648;SDS011;59492;45.638;11.714;2022-09-12T00:28:11;1.80;;;1.50;;
71648;SDS011;59492;45.638;11.714;2022-09-12T00:30:41;2.30;;;1.60;;
71648;SDS011;59492;45.638;11.714;2022-09-12T00:33:08;2.10;;;1.80;;
71648;SDS011;59492;45.638;11.714;2022-09-12T00:35:46;1.70;;;1.50;;
71648;SDS011;59492;45.638;11.714;2022-09-12T00:38:20;1.80;;;1.30;;
71648;SDS011;59492;45.638;11.714;2022-09-12T00:40:50;2.80;;;1.70;;
71648;SDS011;59492;45.638;11.714;2022-09-12T00:43:37;4.40;;;1.70;;
71648;SDS011;59492;45.638;11.714;2022-09-12T00:46:25;2.70;;;1.50;;
71648;SDS011;59492;45.638;11.714;2022-09-12T00:48:59;1.70;;;1.50;;
71648;SDS011;59492;45.638;11.714;2022-09-12T00:51:28;2.90;;;1.40;;
71648;SDS011;59492;45.638;11.714;2022-09-12T00:53:58;4.10;;;1.60;;
71648;SDS011;59492;45.638;11.714;2022-09-12T00:56:27;2.20;;;1.40;;
71648;SDS011;59492;45.638;11.714;2022-09-12T00:58:58;2.90;;;1.80;;
71648;SDS011;59492;45.638;11.714;2022-09-12T01:01:42;2.30;;;1.50;;
71648;SDS011;59492;45.638;11.714;2022-09-12T01:04:12;2.20;;;1.50;;
71648;SDS011;59492;45.638;11.714;2022-09-12T01:06:58;2.20;;;1.50;;
71648;SDS011;59492;45.638;11.714;2022-09-12T01:09:35;3.90;;;1.50;;
71648;SDS011;59492;45.638;11.714;2022-09-12T01:12:02;2.40;;;1.50;;
71648;SDS011;59492;45.638;11.714;2022-09-12T01:14:29;1.90;;;1.50;;
71648;SDS011;59492;45.638;11.714;2022-09-12T01:16:56;1.60;;;1.30;;
71648;SDS011;59492;45.638;11.714;2022-09-12T01:22:33;3.60;;;1.50;;
71648;SDS011;59492;45.638;11.714;2022-09-12T01:33:37;2.50;;;1.40;;
71648;SDS011;59492;45.638;11.714;2022-09-12T01:52:32;2.50;;;1.30;;
71648;SDS011;59492;45.638;11.714;2022-09-12T01:55:10;1.80;;;1.40;;
71648;SDS011;59492;45.638;11.714;2022-09-12T01:57:42;1.80;;;1.40;;
71648;SDS011;59492;45.638;11.714;2022-09-12T02:00:14;1.70;;;1.40;;
71648;SDS011;59492;45.638;11.714;2022-09-12T02:02:55;1.90;;;1.40;;
71648;SDS011;59492;45.638;11.714;2022-09-12T02:05:28;2.00;;;1.50;;
71648;SDS011;59492;45.638;11.714;2022-09-12T02:08:18;2.30;;;1.40;;
71648;SDS011;59492;45.638;11.714;2022-09-12T02:10:52;1.70;;;1.30;;
71648;SDS011;59492;45.638;11.714;2022-09-12T02:13:27;2.10;;;1.50;;
71648;SDS011;59492;45.638;11.714;2022-09-12T02:16:18;2.10;;;1.30;;
71648;SDS011;59492;45.638;11.714;2022-09-12T02:18:46;1.80;;;1.30;;
71648;SDS011;59492;45.638;11.714;2022-09-12T02:21:18;2.50;;;1.30;;
71648;SDS011;59492;45.638;11.714;2022-09-12T02:23:47;1.80;;;1.30;;
71648;SDS011;59492;45.638;11.714;2022-09-12T02:26:20;1.50;;;1.30;;
71648;SDS011;59492;45.638;11.714;2022-09-12T02:28:50;2.90;;;1.40;;
71648;SDS011;59492;45.638;11.714;2022-09-12T02:31:25;3.60;;;1.20;;
71648;SDS011;59492;45.638;11.714;2022-09-12T02:39:15;1.30;;;1.20;;
71648;SDS011;59492;45.638;11.714;2022-09-12T02:41:45;1.50;;;1.10;;
71648;SDS011;59492;45.638;11.714;2022-09-12T02:44:12;3.30;;;1.30;;
71648;SDS011;59492;45.638;11.714;2022-09-12T02:46:46;2.60;;;1.00;;
71648;SDS011;59492;45.638;11.714;2022-09-12T02:49:14;1.20;;;1.10;;
71648;SDS011;59492;45.638;11.714;2022-09-12T02:51:41;1.60;;;1.30;;
71648;SDS011;59492;45.638;11.714;2022-09-12T02:54:07;1.40;;;1.20;;
71648;SDS011;59492;45.638;11.714;2022-09-12T02:56:34;1.30;;;1.20;;
71648;SDS011;59492;45.638;11.714;2022-09-12T02:59:01;1.90;;;1.20;;
71648;SDS011;59492;45.638;11.714;2022-09-12T03:10:02;1.30;;;1.00;;
71648;SDS011;59492;45.638;11.714;2022-09-12T03:23:23;1.30;;;1.20;;
71648;SDS011;59492;45.638;11.714;2022-09-12T03:26:05;1.90;;;1.10;;
71648;SDS011;59492;45.638;11.714;2022-09-12T03:28:37;1.40;;;1.20;;
71648;SDS011;59492;45.638;11.714;2022-09-12T03:31:11;2.40;;;1.00;;
71648;SDS011;59492;45.638;11.714;2022-09-12T03:33:41;1.20;;;1.00;;
71648;SDS011;59492;45.638;11.714;2022-09-12T03:36:24;1.90;;;1.20;;
71648;SDS011;59492;45.638;11.714;2022-09-12T03:38:51;2.00;;;1.30;;
71648;SDS011;59492;45.638;11.714;2022-09-12T03:41:17;1.30;;;1.20;;
71648;SDS011;59492;45.638;11.714;2022-09-12T03:43:44;2.70;;;1.30;;
71648;SDS011;59492;45.638;11.714;2022-09-12T03:46:10;1.30;;;1.10;;
71648;SDS011;59492;45.638;11.714;2022-09-12T03:48:35;1.30;;;1.10;;
71648;SDS011;59492;45.638;11.714;2022-09-12T03:51:05;2.40;;;1.20;;
71648;SDS011;59492;45.638;11.714;2022-09-12T03:53:33;1.90;;;1.40;;
71648;SDS011;59492;45.638;11.714;2022-09-12T03:56:04;1.80;;;1.40;;
71648;SDS011;59492;45.638;11.714;2022-09-12T03:58:34;3.60;;;1.20;;
71648;SDS011;59492;45.638;11.714;2022-09-12T04:01:10;3.30;;;1.10;;
71648;SDS011;59492;45.638;11.714;2022-09-12T04:03:38;2.30;;;1.20;;
71648;SDS011;59492;45.638;11.714;2022-09-12T04:06:05;2.20;;;1.10;;
71648;SDS011;59492;45.638;11.714;2022-09-12T04:08:32;1.30;;;1.20;;
71648;SDS011;59492;45.638;11.714;2022-09-12T04:11:05;1.30;;;1.00;;
71648;SDS011;59492;45.638;11.714;2022-09-12T04:13:33;1.20;;;1.10;;
71648;SDS011;59492;45.638;11.714;2022-09-12T04:16:06;2.20;;;1.40;;
71648;SDS011;59492;45.638;11.714;2022-09-12T04:18:33;1.40;;;1.00;;
71648;SDS011;59492;45.638;11.714;2022-09-12T04:21:06;1.30;;;1.10;;
71648;SDS011;59492;45.638;11.714;2022-09-12T04:23:34;2.00;;;1.20;;
71648;SDS011;59492;45.638;11.714;2022-09-12T04:26:00;3.00;;;1.20;;
71648;SDS011;59492;45.638;11.714;2022-09-12T04:28:28;2.20;;;1.10;;
71648;SDS011;59492;45.638;11.714;2022-09-12T04:30:54;1.20;;;1.10;;
71648;SDS011;59492;45.638;11.714;2022-09-12T04:33:20;2.40;;;1.20;;
71648;SDS011;59492;45.638;11.714;2022-09-12T04:35:46;1.30;;;1.00;;
71648;SDS011;59492;45.638;11.714;2022-09-12T04:38:12;1.70;;;1.20;;
71648;SDS011;59492;45.638;11.714;2022-09-12T04:40:38;1.40;;;1.20;;
71648;SDS011;59492;45.638;11.714;2022-09-12T04:43:04;1.80;;;1.20;;
71648;SDS011;59492;45.638;11.714;2022-09-12T04:45:33;1.20;;;1.10;;
71648;SDS011;59492;45.638;11.714;2022-09-12T04:48:04;2.10;;;1.50;;
71648;SDS011;59492;45.638;11.714;2022-09-12T04:50:30;2.30;;;1.20;;
71648;SDS011;59492;45.638;11.714;2022-09-12T04:53:04;1.20;;;1.10;;
71648;SDS011;59492;45.638;11.714;2022-09-12T04:55:33;1.60;;;1.00;;
71648;SDS011;59492;45.638;11.714;2022-09-12T04:58:02;1.80;;;1.10;;
71648;SDS011;59492;45.638;11.714;2022-09-12T05:00:31;1.50;;;1.30;;
71648;SDS011;59492;45.638;11.714;2022-09-12T05:03:12;1.40;;;1.30;;
71648;SDS011;59492;45.638;11.714;2022-09-12T05:05:43;1.30;;;1.20;;
71648;SDS011;59492;45.638;11.714;2022-09-12T05:08:18;1.30;;;1.10;;
71648;SDS011;59492;45.638;11.714;2022-09-12T05:10:46;1.10;;;1.00;;
71648;SDS011;59492;45.638;11.714;2022-09-12T05:13:20;1.20;;;1.10;;
71648;SDS011;59492;45.638;11.714;2022-09-12T05:15:56;1.40;;;1.30;;
71648;SDS011;59492;45.638;11.714;2022-09-12T05:18:27;1.10;;;1.00;;
71648;SDS011;59492;45.638;11.714;2022-09-12T05:20:58;1.80;;;1.20;;
71648;SDS011;59492;45.638;11.714;2022-09-12T05:23:37;2.10;;;1.30;;
71648;SDS011;59492;45.638;11.714;2022-09-12T05:26:09;2.30;;;1.10;;
71648;SDS011;59492;45.638;11.714;2022-09-12T05:28:43;1.10;;;1.00;;
71648;SDS011;59492;45.638;11.714;2022-09-12T05:31:16;3.30;;;1.30;;
71648;SDS011;59492;45.638;11.714;2022-09-12T05:33:46;1.90;;;1.30;;
71648;SDS011;59492;45.638;11.714;2022-09-12T05:36:23;1.90;;;1.30;;
71648;SDS011;59492;45.638;11.714;2022-09-12T05:39:09;1.60;;;1.20;;
71648;SDS011;59492;45.638;11.714;2022-09-12T05:41:37;1.90;;;1.10;;
71648;SDS011;59492;45.638;11.714;2022-09-12T05:44:12;1.30;;;1.20;;
71648;SDS011;59492;45.638;11.714;2022-09-12T05:46:41;1.30;;;1.20;;
71648;SDS011;59492;45.638;11.714;2022-09-12T05:49:14;2.10;;;1.10;;
71648;SDS011;59492;45.638;11.714;2022-09-12T05:51:42;1.50;;;1.00;;
71648;SDS011;59492;45.638;11.714;2022-09-12T05:54:13;3.20;;;1.10;;
71648;SDS011;59492;45.638;11.714;2022-09-12T05:57:06;3.90;;;1.20;;
71648;SDS011;59492;45.638;11.714;2022-09-12T05:59:54;4.70;;;1.40;;
71648;SDS011;59492;45.638;11.714;2022-09-12T06:05:00;2.70;;;1.30;;
71648;SDS011;59492;45.638;11.714;2022-09-12T06:10:27;2.20;;;1.50;;
71648;SDS011;59492;45.638;11.714;2022-09-12T06:12:56;4.50;;;1.90;;
71648;SDS011;59492;45.638;11.714;2022-09-12T06:15:24;4.50;;;1.90;;
71648;SDS011;59492;45.638;11.714;2022-09-12T06:17:50;4.70;;;1.40;;
71648;SDS011;59492;45.638;11.714;2022-09-12T06:20:16;6.30;;;1.70;;
71648;SDS011;59492;45.638;11.714;2022-09-12T06:22:47;7.80;;;2.30;;
71648;SDS011;59492;45.638;11.714;2022-09-12T06:25:13;5.50;;;2.40;;
71648;SDS011;59492;45.638;11.714;2022-09-12T06:30:29;9.80;;;3.50;;
71648;SDS011;59492;45.638;11.714;2022-09-12T06:33:01;10.00;;;3.60;;
71648;SDS011;59492;45.638;11.714;2022-09-12T06:35:36;9.20;;;3.50;;
71648;SDS011;59492;45.638;11.714;2022-09-12T06:38:06;7.00;;;3.10;;
71648;SDS011;59492;45.638;11.714;2022-09-12T06:43:19;11.80;;;3.40;;
71648;SDS011;59492;45.638;11.714;2022-09-12T06:48:37;7.90;;;3.10;;
71648;SDS011;59492;45.638;11.714;2022-09-12T06:51:34;7.20;;;2.70;;
71648;SDS011;59492;45.638;11.714;2022-09-12T06:54:00;13.00;;;3.20;;
71648;SDS011;59492;45.638;11.714;2022-09-12T06:56:27;9.70;;;2.70;;
71648;SDS011;59492;45.638;11.714;2022-09-12T06:58:57;7.80;;;2.70;;
71648;SDS011;59492;45.638;11.714;2022-09-12T07:01:32;8.00;;;2.60;;
71648;SDS011;59492;45.638;11.714;2022-09-12T07:04:03;9.60;;;2.60;;
71648;SDS011;59492;45.638;11.714;2022-09-12T07:06:42;7.70;;;2.60;;
71648;SDS011;59492;45.638;11.714;2022-09-12T07:11:56;5.70;;;2.60;;
71648;SDS011;59492;45.638;11.714;2022-09-12T07:15:02;5.70;;;2.10;;
71648;SDS011;59492;45.638;11.714;2022-09-12T07:17:28;5.30;;;2.40;;
71648;SDS011;59492;45.638;11.714;2022-09-12T07:20:15;6.80;;;2.40;;
71648;SDS011;59492;45.638;11.714;2022-09-12T07:22:57;5.30;;;2.40;;
71648;SDS011;59492;45.638;11.714;2022-09-12T07:25:40;6.40;;;2.40;;
71648;SDS011;59492;45.638;11.714;2022-09-12T07:28:27;12.60;;;2.40;;
71648;SDS011;59492;45.638;11.714;2022-09-12T07:31:12;5.30;;;2.50;;
71648;SDS011;59492;45.638;11.714;2022-09-12T07:33:41;7.70;;;2.30;;
71648;SDS011;59492;45.638;11.714;2022-09-12T07:36:11;5.80;;;2.70;;
71648;SDS011;59492;45.638;11.714;2022-09-12T07:38:43;5.90;;;2.60;;
71648;SDS011;59492;45.638;11.714;2022-09-12T07:41:19;6.50;;;2.60;;
71648;SDS011;59492;45.638;11.714;2022-09-12T07:44:02;7.00;;;2.80;;
71648;SDS011;59492;45.638;11.714;2022-09-12T07:46:53;8.30;;;2.60;;
71648;SDS011;59492;45.638;11.714;2022-09-12T07:49:20;7.90;;;2.60;;
71648;SDS011;59492;45.638;11.714;2022-09-12T07:51:52;5.30;;;2.80;;
71648;SDS011;59492;45.638;11.714;2022-09-12T07:54:22;4.60;;;2.40;;
71648;SDS011;59492;45.638;11.714;2022-09-12T07:56:52;7.10;;;2.90;;
71648;SDS011;59492;45.638;11.714;2022-09-12T07:59:21;5.10;;;2.90;;
71648;SDS011;59492;45.638;11.714;2022-09-12T08:01:52;4.90;;;3.20;;
71648;SDS011;59492;45.638;11.714;2022-09-12T08:04:29;7.70;;;3.70;;
71648;SDS011;59492;45.638;11.714;2022-09-12T08:07:02;7.40;;;3.10;;
71648;SDS011;59492;45.638;11.714;2022-09-12T08:09:31;8.50;;;4.20;;
71648;SDS011;59492;45.638;11.714;2022-09-12T08:12:18;5.50;;;3.70;;
71648;SDS011;59492;45.638;11.714;2022-09-12T08:14:46;8.60;;;3.80;;
71648;SDS011;59492;45.638;11.714;2022-09-12T08:17:15;11.90;;;4.50;;
71648;SDS011;59492;45.638;11.714;2022-09-12T08:19:41;12.90;;;5.30;;
71648;SDS011;59492;45.638;11.714;2022-09-12T08:22:07;15.20;;;6.30;;
71648;SDS011;59492;45.638;11.714;2022-09-12T08:24:34;13.60;;;6.80;;
71648;SDS011;59492;45.638;11.714;2022-09-12T08:27:02;19.30;;;6.40;;
71648;SDS011;59492;45.638;11.714;2022-09-12T08:29:28;17.20;;;6.80;;
71648;SDS011;59492;45.638;11.714;2022-09-12T08:31:54;16.80;;;5.50;;
71648;SDS011;59492;45.638;11.714;2022-09-12T08:34:22;21.00;;;6.20;;
71648;SDS011;59492;45.638;11.714;2022-09-12T08:36:49;10.80;;;5.50;;
71648;SDS011;59492;45.638;11.714;2022-09-12T08:39:21;16.60;;;7.00;;
71648;SDS011;59492;45.638;11.714;2022-09-12T08:42:00;15.50;;;6.10;;
71648;SDS011;59492;45.638;11.714;2022-09-12T08:49:58;11.40;;;6.00;;
71648;SDS011;59492;45.638;11.714;2022-09-12T08:55:48;13.40;;;6.00;;
71648;SDS011;59492;45.638;11.714;2022-09-12T08:58:23;13.80;;;6.20;;
71648;SDS011;59492;45.638;11.714;2022-09-12T09:03:40;10.40;;;5.60;;
71648;SDS011;59492;45.638;11.714;2022-09-12T09:09:45;11.00;;;5.50;;
71648;SDS011;59492;45.638;11.714;2022-09-12T09:15:31;10.80;;;4.70;;
71648;SDS011;59492;45.638;11.714;2022-09-12T09:23:32;10.00;;;4.90;;
71648;SDS011;59492;45.638;11.714;2022-09-12T09:28:50;20.80;;;4.90;;
71648;SDS011;59492;45.638;11.714;2022-09-12T09:31:22;16.90;;;5.60;;
71648;SDS011;59492;45.638;11.714;2022-09-12T09:33:50;16.00;;;4.30;;
71648;SDS011;59492;45.638;11.714;2022-09-12T09:44:43;6.40;;;2.90;;
71648;SDS011;59492;45.638;11.714;2022-09-12T09:47:13;6.50;;;3.30;;
71648;SDS011;59492;45.638;11.714;2022-09-12T09:49:42;5.70;;;2.70;;
71648;SDS011;59492;45.638;11.714;2022-09-12T09:52:10;14.00;;;3.40;;
71648;SDS011;59492;45.638;11.714;2022-09-12T09:55:19;7.60;;;3.40;;
71648;SDS011;59492;45.638;11.714;2022-09-12T09:57:43;7.90;;;3.30;;
71648;SDS011;59492;45.638;11.714;2022-09-12T10:00:23;7.80;;;2.60;;
71648;SDS011;59492;45.638;11.714;2022-09-12T10:02:58;7.50;;;2.80;;
71648;SDS011;59492;45.638;11.714;2022-09-12T10:05:46;6.60;;;2.50;;
71648;SDS011;59492;45.638;11.714;2022-09-12T10:11:03;7.00;;;2.80;;
71648;SDS011;59492;45.638;11.714;2022-09-12T10:13:42;10.10;;;3.00;;
71648;SDS011;59492;45.638;11.714;2022-09-12T10:16:22;5.50;;;2.70;;
71648;SDS011;59492;45.638;11.714;2022-09-12T10:18:50;4.20;;;2.30;;
71648;SDS011;59492;45.638;11.714;2022-09-12T10:21:33;4.50;;;2.40;;
71648;SDS011;59492;45.638;11.714;2022-09-12T10:24:17;4.00;;;2.20;;
71648;SDS011;59492;45.638;11.714;2022-09-12T10:26:56;3.70;;;2.20;;
71648;SDS011;59492;45.638;11.714;2022-09-12T10:29:32;5.30;;;2.50;;
71648;SDS011;59492;45.638;11.714;2022-09-12T10:32:05;4.50;;;2.20;;
71648;SDS011;59492;45.638;11.714;2022-09-12T10:34:44;6.20;;;2.30;;
71648;SDS011;59492;45.638;11.714;2022-09-12T10:37:36;8.50;;;2.30;;
71648;SDS011;59492;45.638;11.714;2022-09-12T10:40:18;5.90;;;1.60;;
71648;SDS011;59492;45.638;11.714;2022-09-12T10:42:51;8.10;;;2.20;;
71648;SDS011;59492;45.638;11.714;2022-09-12T10:45:19;3.50;;;2.00;;
71648;SDS011;59492;45.638;11.714;2022-09-12T10:47:51;4.00;;;1.80;;
71648;SDS011;59492;45.638;11.714;2022-09-12T10:50:28;2.40;;;1.70;;
71648;SDS011;59492;45.638;11.714;2022-09-12T11:01:44;2.90;;;2.00;;
71648;SDS011;59492;45.638;11.714;2022-09-12T11:22:20;2.80;;;1.40;;
71648;SDS011;59492;45.638;11.714;2022-09-12T11:27:56;2.20;;;1.40;;
71648;SDS011;59492;45.638;11.714;2022-09-12T11:30:48;3.00;;;1.30;;
71648;SDS011;59492;45.638;11.714;2022-09-12T11:39:01;2.30;;;1.50;;
71648;SDS011;59492;45.638;11.714;2022-09-12T11:41:34;2.60;;;1.30;;
71648;SDS011;59492;45.638;11.714;2022-09-12T11:44:12;5.30;;;1.60;;
71648;SDS011;59492;45.638;11.714;2022-09-12T11:46:43;2.60;;;1.40;;
71648;SDS011;59492;45.638;11.714;2022-09-12T11:49:35;4.10;;;1.60;;
71648;SDS011;59492;45.638;11.714;2022-09-12T11:52:06;6.40;;;1.50;;
71648;SDS011;59492;45.638;11.714;2022-09-12T11:57:52;3.20;;;1.30;;
71648;SDS011;59492;45.638;11.714;2022-09-12T12:00:28;3.00;;;1.20;;
71648;SDS011;59492;45.638;11.714;2022-09-12T12:03:14;4.00;;;1.30;;
71648;SDS011;59492;45.638;11.714;2022-09-12T12:08:37;4.10;;;1.40;;
71648;SDS011;59492;45.638;11.714;2022-09-12T12:11:08;3.20;;;1.50;;
71648;SDS011;59492;45.638;11.714;2022-09-12T12:13:40;4.00;;;1.40;;
71648;SDS011;59492;45.638;11.714;2022-09-12T12:18:58;7.80;;;1.70;;
71648;SDS011;59492;45.638;11.714;2022-09-12T12:21:40;6.30;;;1.70;;
71648;SDS011;59492;45.638;11.714;2022-09-12T12:24:16;3.40;;;1.60;;
71648;SDS011;59492;45.638;11.714;2022-09-12T12:26:55;4.60;;;1.50;;
71648;SDS011;59492;45.638;11.714;2022-09-12T12:34:33;5.90;;;1.30;;
71648;SDS011;59492;45.638;11.714;2022-09-12T12:45:00;4.80;;;1.40;;
71648;SDS011;59492;45.638;11.714;2022-09-12T12:47:42;2.80;;;1.30;;
71648;SDS011;59492;45.638;11.714;2022-09-12T12:52:46;3.50;;;1.60;;
71648;SDS011;59492;45.638;11.714;2022-09-12T12:55:30;4.90;;;1.40;;
71648;SDS011;59492;45.638;11.714;2022-09-12T12:58:04;3.40;;;1.30;;
71648;SDS011;59492;45.638;11.714;2022-09-12T13:03:55;5.50;;;1.60;;
71648;SDS011;59492;45.638;11.714;2022-09-12T13:06:41;2.70;;;1.40;;
71648;SDS011;59492;45.638;11.714;2022-09-12T13:12:07;5.10;;;1.70;;
71648;SDS011;59492;45.638;11.714;2022-09-12T13:17:59;2.60;;;1.50;;
71648;SDS011;59492;45.638;11.714;2022-09-12T13:21:13;4.00;;;1.80;;
71648;SDS011;59492;45.638;11.714;2022-09-12T13:23:37;4.40;;;1.50;;
71648;SDS011;59492;45.638;11.714;2022-09-12T13:26:11;2.70;;;1.30;;
71648;SDS011;59492;45.638;11.714;2022-09-12T13:28:45;3.60;;;1.40;;
71648;SDS011;59492;45.638;11.714;2022-09-12T13:31:19;4.70;;;1.40;;
71648;SDS011;59492;45.638;11.714;2022-09-12T13:34:23;4.00;;;1.20;;
71648;SDS011;59492;45.638;11.714;2022-09-12T13:40:05;2.50;;;1.30;;
71648;SDS011;59492;45.638;11.714;2022-09-12T13:43:28;2.00;;;1.20;;
71648;SDS011;59492;45.638;11.714;2022-09-12T13:46:11;2.20;;;1.20;;
71648;SDS011;59492;45.638;11.714;2022-09-12T13:48:41;2.50;;;1.50;;
71648;SDS011;59492;45.638;11.714;2022-09-12T13:51:12;10.30;;;1.50;;
71648;SDS011;59492;45.638;11.714;2022-09-12T13:53:47;7.30;;;1.30;;
71648;SDS011;59492;45.638;11.714;2022-09-12T13:56:19;1.50;;;1.10;;
71648;SDS011;59492;45.638;11.714;2022-09-12T13:58:55;1.20;;;1.00;;
71648;SDS011;59492;45.638;11.714;2022-09-12T14:01:39;2.40;;;1.30;;
71648;SDS011;59492;45.638;11.714;2022-09-12T14:04:13;2.40;;;1.30;;
71648;SDS011;59492;45.638;11.714;2022-09-12T14:09:43;6.00;;;1.90;;
71648;SDS011;59492;45.638;11.714;2022-09-12T14:12:21;8.00;;;2.10;;
71648;SDS011;59492;45.638;11.714;2022-09-12T14:14:51;9.70;;;2.40;;
71648;SDS011;59492;45.638;11.714;2022-09-12T14:17:21;7.50;;;2.00;;
71648;SDS011;59492;45.638;11.714;2022-09-12T14:20:04;6.90;;;2.00;;
71648;SDS011;59492;45.638;11.714;2022-09-12T14:22:33;8.90;;;2.20;;
71648;SDS011;59492;45.638;11.714;2022-09-12T14:25:02;9.70;;;2.60;;
71648;SDS011;59492;45.638;11.714;2022-09-12T14:27:31;6.70;;;2.30;;
71648;SDS011;59492;45.638;11.714;2022-09-12T14:30:17;5.60;;;2.30;;
71648;SDS011;59492;45.638;11.714;2022-09-12T14:33:03;10.60;;;2.60;;
71648;SDS011;59492;45.638;11.714;2022-09-12T14:38:58;5.00;;;2.00;;
71648;SDS011;59492;45.638;11.714;2022-09-12T14:41:36;5.60;;;2.00;;
71648;SDS011;59492;45.638;11.714;2022-09-12T14:44:07;6.20;;;2.00;;
71648;SDS011;59492;45.638;11.714;2022-09-12T14:46:41;4.10;;;1.90;;
71648;SDS011;59492;45.638;11.714;2022-09-12T14:49:12;5.30;;;1.80;;
71648;SDS011;59492;45.638;11.714;2022-09-12T14:56:56;6.30;;;2.20;;
71648;SDS011;59492;45.638;11.714;2022-09-12T14:59:28;4.50;;;2.30;;
71648;SDS011;59492;45.638;11.714;2022-09-12T15:08:10;4.60;;;1.80;;
71648;SDS011;59492;45.638;11.714;2022-09-12T15:10:39;3.20;;;1.80;;
71648;SDS011;59492;45.638;11.714;2022-09-12T15:13:10;3.90;;;1.70;;
71648;SDS011;59492;45.638;11.714;2022-09-12T15:15:39;6.40;;;1.80;;
71648;SDS011;59492;45.638;11.714;2022-09-12T15:18:07;5.20;;;2.20;;
71648;SDS011;59492;45.638;11.714;2022-09-12T15:20:38;5.10;;;2.00;;
71648;SDS011;59492;45.638;11.714;2022-09-12T15:23:13;5.80;;;2.00;;
71648;SDS011;59492;45.638;11.714;2022-09-12T15:25:59;5.90;;;2.20;;
71648;SDS011;59492;45.638;11.714;2022-09-12T15:28:31;3.70;;;1.70;;
71648;SDS011;59492;45.638;11.714;2022-09-12T15:31:03;3.20;;;2.00;;
71648;SDS011;59492;45.638;11.714;2022-09-12T15:33:56;3.50;;;1.60;;
71648;SDS011;59492;45.638;11.714;2022-09-12T15:36:29;4.30;;;1.50;;
71648;SDS011;59492;45.638;11.714;2022-09-12T15:38:55;4.30;;;1.50;;
71648;SDS011;59492;45.638;11.714;2022-09-12T15:41:33;2.60;;;1.60;;
71648;SDS011;59492;45.638;11.714;2022-09-12T15:44:09;5.80;;;1.70;;
71648;SDS011;59492;45.638;11.714;2022-09-12T15:46:36;3.30;;;1.50;;
71648;SDS011;59492;45.638;11.714;2022-09-12T15:49:14;4.20;;;1.70;;
71648;SDS011;59492;45.638;11.714;2022-09-12T15:51:42;2.90;;;1.40;;
71648;SDS011;59492;45.638;11.714;2022-09-12T15:54:08;3.30;;;1.50;;
71648;SDS011;59492;45.638;11.714;2022-09-12T15:56:37;4.90;;;1.80;;
71648;SDS011;59492;45.638;11.714;2022-09-12T15:59:09;3.70;;;1.70;;
71648;SDS011;59492;45.638;11.714;2022-09-12T16:02:54;3.40;;;1.60;;
71648;SDS011;59492;45.638;11.714;2022-09-12T16:05:23;3.30;;;1.30;;
71648;SDS011;59492;45.638;11.714;2022-09-12T16:07:54;2.50;;;1.70;;
71648;SDS011;59492;45.638;11.714;2022-09-12T16:10:25;2.80;;;1.50;;
71648;SDS011;59492;45.638;11.714;2022-09-12T16:12:56;3.00;;;1.60;;
71648;SDS011;59492;45.638;11.714;2022-09-12T16:15:24;4.10;;;1.40;;
71648;SDS011;59492;45.638;11.714;2022-09-12T16:17:55;4.20;;;1.60;;
71648;SDS011;59492;45.638;11.714;2022-09-12T16:20:26;4.60;;;1.30;;
71648;SDS011;59492;45.638;11.714;2022-09-12T16:22:59;4.60;;;1.30;;
71648;SDS011;59492;45.638;11.714;2022-09-12T16:25:29;1.50;;;1.30;;
71648;SDS011;59492;45.638;11.714;2022-09-12T16:28:00;4.10;;;1.60;;
71648;SDS011;59492;45.638;11.714;2022-09-12T16:30:32;2.20;;;1.60;;
71648;SDS011;59492;45.638;11.714;2022-09-12T16:33:09;2.80;;;1.60;;
71648;SDS011;59492;45.638;11.714;2022-09-12T16:35:39;2.80;;;1.60;;
71648;SDS011;59492;45.638;11.714;2022-09-12T16:38:07;4.80;;;1.50;;
71648;SDS011;59492;45.638;11.714;2022-09-12T16:40:38;1.80;;;1.40;;
71648;SDS011;59492;45.638;11.714;2022-09-12T16:43:04;5.80;;;1.40;;
71648;SDS011;59492;45.638;11.714;2022-09-12T16:45:35;2.90;;;1.40;;
71648;SDS011;59492;45.638;11.714;2022-09-12T16:48:01;3.80;;;1.40;;
71648;SDS011;59492;45.638;11.714;2022-09-12T16:50:29;2.70;;;1.40;;
71648;SDS011;59492;45.638;11.714;2022-09-12T16:52:59;6.80;;;1.60;;
71648;SDS011;59492;45.638;11.714;2022-09-12T16:55:33;2.50;;;1.50;;
71648;SDS011;59492;45.638;11.714;2022-09-12T16:57:59;2.60;;;1.50;;
71648;SDS011;59492;45.638;11.714;2022-09-12T17:00:31;3.90;;;1.40;;
71648;SDS011;59492;45.638;11.714;2022-09-12T17:03:03;3.40;;;1.50;;
71648;SDS011;59492;45.638;11.714;2022-09-12T17:05:31;3.90;;;1.70;;
71648;SDS011;59492;45.638;11.714;2022-09-12T17:08:02;6.90;;;1.40;;
71648;SDS011;59492;45.638;11.714;2022-09-12T17:10:40;3.10;;;1.60;;
71648;SDS011;59492;45.638;11.714;2022-09-12T17:13:06;3.90;;;1.50;;
71648;SDS011;59492;45.638;11.714;2022-09-12T17:15:50;4.20;;;1.40;;
71648;SDS011;59492;45.638;11.714;2022-09-12T17:18:19;5.40;;;1.40;;
71648;SDS011;59492;45.638;11.714;2022-09-12T17:20:45;2.30;;;1.50;;
71648;SDS011;59492;45.638;11.714;2022-09-12T17:23:27;3.00;;;1.50;;
71648;SDS011;59492;45.638;11.714;2022-09-12T17:25:57;3.60;;;1.40;;
71648;SDS011;59492;45.638;11.714;2022-09-12T17:28:23;4.30;;;1.40;;
71648;SDS011;59492;45.638;11.714;2022-09-12T17:30:59;3.10;;;1.60;;
71648;SDS011;59492;45.638;11.714;2022-09-12T17:33:31;3.20;;;1.60;;
71648;SDS011;59492;45.638;11.714;2022-09-12T17:36:09;6.70;;;1.60;;
71648;SDS011;59492;45.638;11.714;2022-09-12T17:38:49;2.80;;;1.50;;
71648;SDS011;59492;45.638;11.714;2022-09-12T17:41:25;6.10;;;1.80;;
71648;SDS011;59492;45.638;11.714;2022-09-12T17:43:54;4.50;;;1.80;;
71648;SDS011;59492;45.638;11.714;2022-09-12T17:46:22;4.70;;;1.90;;
71648;SDS011;59492;45.638;11.714;2022-09-12T17:48:54;4.70;;;2.20;;
71648;SDS011;59492;45.638;11.714;2022-09-12T17:51:28;5.40;;;2.30;;
71648;SDS011;59492;45.638;11.714;2022-09-12T17:54:02;6.50;;;1.90;;
71648;SDS011;59492;45.638;11.714;2022-09-12T17:56:33;3.10;;;1.60;;
71648;SDS011;59492;45.638;11.714;2022-09-12T17:59:16;5.00;;;1.60;;
71648;SDS011;59492;45.638;11.714;2022-09-12T18:01:47;5.60;;;1.90;;
71648;SDS011;59492;45.638;11.714;2022-09-12T18:04:34;5.90;;;1.90;;
71648;SDS011;59492;45.638;11.714;2022-09-12T18:09:47;4.00;;;1.70;;
71648;SDS011;59492;45.638;11.714;2022-09-12T18:12:17;4.70;;;1.90;;
71648;SDS011;59492;45.638;11.714;2022-09-12T18:14:44;3.20;;;1.40;;
71648;SDS011;59492;45.638;11.714;2022-09-12T18:17:24;8.50;;;1.50;;
71648;SDS011;59492;45.638;11.714;2022-09-12T18:19:55;5.40;;;1.50;;
71648;SDS011;59492;45.638;11.714;2022-09-12T18:22:23;7.30;;;1.80;;
71648;SDS011;59492;45.638;11.714;2022-09-12T18:25:13;3.40;;;1.60;;
71648;SDS011;59492;45.638;11.714;2022-09-12T18:27:45;3.50;;;1.50;;
71648;SDS011;59492;45.638;11.714;2022-09-12T18:30:13;3.80;;;1.40;;
71648;SDS011;59492;45.638;11.714;2022-09-12T18:32:47;6.30;;;1.70;;
71648;SDS011;59492;45.638;11.714;2022-09-12T18:35:13;7.50;;;2.00;;